Terminal Aerodrome Forecast
Issued by NWS Wilmington, OH

Current Version | Previous Version | Graphics & Text | Print | Product List | Glossary Off
Versions: 1 2 3 4 5 6 7 8 9 10 11 12 13 14 15 16 17 18 19 20 21 22 23 24 25

000
FTUS41 KILN 062334
TAFILN
TAF
KILN 062334Z 0700/0724 33010KT P6SM SCT060
     FM070200 26005KT P6SM SCT250
     FM071000 21008KT P6SM SCT120
     FM071500 26014G24KT P6SM BKN250
     FM072000 29016G25KT P6SM VCTS BKN040CB=

USA.gov is the U.S. government's official web portal to all federal, state and local government web resources and services.